sensor_id;sensor_type;location;lat;lon;timestamp;pressure;altitude;pressure_sealevel;temperature;humidity
59435;BME280;45241;49.768;8.636;2023-12-14T00:00:00;99148.38;;;7.70;100.00
59435;BME280;45241;49.768;8.636;2023-12-14T00:02:25;99149.97;;;7.57;100.00
59435;BME280;45241;49.768;8.636;2023-12-14T00:04:51;99151.47;;;7.67;100.00
59435;BME280;45241;49.768;8.636;2023-12-14T00:07:16;99149.41;;;7.69;100.00
59435;BME280;45241;49.768;8.636;2023-12-14T00:09:41;99162.72;;;7.62;100.00
59435;BME280;45241;49.768;8.636;2023-12-14T00:12:07;99165.75;;;7.52;100.00
59435;BME280;45241;49.768;8.636;2023-12-14T00:14:32;99156.13;;;7.58;100.00
59435;BME280;45241;49.768;8.636;2023-12-14T00:16:57;99165.97;;;7.51;100.00
59435;BME280;45241;49.768;8.636;2023-12-14T00:19:24;99167.41;;;7.53;100.00
59435;BME280;45241;49.768;8.636;2023-12-14T00:21:49;99169.00;;;7.48;100.00
59435;BME280;45241;49.768;8.636;2023-12-14T00:24:15;99170.28;;;7.52;100.00
59435;BME280;45241;49.768;8.636;2023-12-14T00:26:40;99170.00;;;7.47;100.00
59435;BME280;45241;49.768;8.636;2023-12-14T00:29:05;99188.47;;;7.42;100.00
59435;BME280;45241;49.768;8.636;2023-12-14T00:31:30;99185.59;;;7.43;100.00
59435;BME280;45241;49.768;8.636;2023-12-14T00:33:56;99183.53;;;7.39;100.00
59435;BME280;45241;49.768;8.636;2023-12-14T00:36:21;99188.88;;;7.39;100.00
59435;BME280;45241;49.768;8.636;2023-12-14T00:38:46;99189.44;;;7.34;100.00
59435;BME280;45241;49.768;8.636;2023-12-14T00:41:12;99194.41;;;7.37;100.00
59435;BME280;45241;49.768;8.636;2023-12-14T00:43:37;99201.91;;;7.27;100.00
59435;BME280;45241;49.768;8.636;2023-12-14T00:46:03;99206.22;;;7.28;100.00
59435;BME280;45241;49.768;8.636;2023-12-14T00:48:29;99210.88;;;7.19;100.00
59435;BME280;45241;49.768;8.636;2023-12-14T00:50:54;99210.03;;;7.19;100.00
59435;BME280;45241;49.768;8.636;2023-12-14T00:53:19;99216.78;;;7.15;100.00
59435;BME280;45241;49.768;8.636;2023-12-14T00:55:45;99221.72;;;7.18;100.00
59435;BME280;45241;49.768;8.636;2023-12-14T00:58:11;99226.03;;;7.19;100.00
59435;BME280;45241;49.768;8.636;2023-12-14T01:00:38;99234.63;;;7.14;100.00
59435;BME280;45241;49.768;8.636;2023-12-14T01:03:03;99237.09;;;7.16;100.00
59435;BME280;45241;49.768;8.636;2023-12-14T01:05:29;99238.13;;;7.15;100.00
59435;BME280;45241;49.768;8.636;2023-12-14T01:07:54;99250.63;;;7.14;100.00
59435;BME280;45241;49.768;8.636;2023-12-14T01:10:19;99255.88;;;7.08;100.00
59435;BME280;45241;49.768;8.636;2023-12-14T01:12:45;99264.34;;;7.11;100.00
59435;BME280;45241;49.768;8.636;2023-12-14T01:15:10;99264.47;;;7.03;100.00
59435;BME280;45241;49.768;8.636;2023-12-14T01:17:35;99265.84;;;6.99;100.00
59435;BME280;45241;49.768;8.636;2023-12-14T01:20:08;99282.66;;;6.99;100.00
59435;BME280;45241;49.768;8.636;2023-12-14T01:22:34;99279.63;;;7.03;100.00
59435;BME280;45241;49.768;8.636;2023-12-14T01:24:59;99283.84;;;6.97;100.00
59435;BME280;45241;49.768;8.636;2023-12-14T01:27:25;99290.28;;;7.03;100.00
59435;BME280;45241;49.768;8.636;2023-12-14T01:29:50;99290.47;;;7.01;100.00
59435;BME280;45241;49.768;8.636;2023-12-14T01:32:15;99304.44;;;7.03;100.00
59435;BME280;45241;49.768;8.636;2023-12-14T01:34:41;99303.22;;;6.84;100.00
59435;BME280;45241;49.768;8.636;2023-12-14T01:37:06;99309.69;;;6.96;100.00
59435;BME280;45241;49.768;8.636;2023-12-14T01:39:32;99308.94;;;7.03;100.00
59435;BME280;45241;49.768;8.636;2023-12-14T01:41:57;99318.28;;;6.77;100.00
59435;BME280;45241;49.768;8.636;2023-12-14T01:44:22;99308.78;;;6.89;100.00
59435;BME280;45241;49.768;8.636;2023-12-14T01:46:48;99312.66;;;6.87;100.00
59435;BME280;45241;49.768;8.636;2023-12-14T01:49:13;99319.31;;;6.97;100.00
59435;BME280;45241;49.768;8.636;2023-12-14T01:51:38;99322.19;;;6.96;100.00
59435;BME280;45241;49.768;8.636;2023-12-14T01:54:04;99331.97;;;6.95;100.00
59435;BME280;45241;49.768;8.636;2023-12-14T01:56:29;99334.50;;;6.97;100.00
59435;BME280;45241;49.768;8.636;2023-12-14T01:58:54;99345.41;;;7.02;100.00
59435;BME280;45241;49.768;8.636;2023-12-14T02:01:38;99340.28;;;7.00;100.00
59435;BME280;45241;49.768;8.636;2023-12-14T02:04:05;99344.22;;;7.05;100.00
59435;BME280;45241;49.768;8.636;2023-12-14T02:06:33;99343.94;;;6.99;100.00
59435;BME280;45241;49.768;8.636;2023-12-14T02:08:58;99347.31;;;7.08;100.00
59435;BME280;45241;49.768;8.636;2023-12-14T02:11:23;99354.59;;;6.99;100.00
59435;BME280;45241;49.768;8.636;2023-12-14T02:13:48;99356.28;;;7.00;100.00
59435;BME280;45241;49.768;8.636;2023-12-14T02:16:14;99357.97;;;7.08;100.00
59435;BME280;45241;49.768;8.636;2023-12-14T02:18:40;99359.38;;;7.04;100.00
59435;BME280;45241;49.768;8.636;2023-12-14T02:21:05;99366.53;;;6.67;100.00
59435;BME280;45241;49.768;8.636;2023-12-14T02:23:30;99369.03;;;6.90;100.00
59435;BME280;45241;49.768;8.636;2023-12-14T02:25:56;99375.19;;;6.91;100.00
59435;BME280;45241;49.768;8.636;2023-12-14T02:28:21;99378.78;;;6.98;100.00
59435;BME280;45241;49.768;8.636;2023-12-14T02:30:46;99378.78;;;6.98;100.00
59435;BME280;45241;49.768;8.636;2023-12-14T02:33:12;99382.97;;;7.07;100.00
59435;BME280;45241;49.768;8.636;2023-12-14T02:35:37;99369.75;;;6.99;100.00
59435;BME280;45241;49.768;8.636;2023-12-14T02:38:02;99384.09;;;6.98;100.00
59435;BME280;45241;49.768;8.636;2023-12-14T02:40:27;99388.72;;;6.89;100.00
59435;BME280;45241;49.768;8.636;2023-12-14T02:42:53;99390.16;;;6.92;100.00
59435;BME280;45241;49.768;8.636;2023-12-14T02:45:18;99391.38;;;6.89;100.00
59435;BME280;45241;49.768;8.636;2023-12-14T02:47:43;99393.66;;;6.92;100.00
59435;BME280;45241;49.768;8.636;2023-12-14T02:50:09;99395.50;;;6.92;100.00
59435;BME280;45241;49.768;8.636;2023-12-14T02:52:34;99399.38;;;6.89;100.00
59435;BME280;45241;49.768;8.636;2023-12-14T02:55:00;99402.59;;;6.85;100.00
59435;BME280;45241;49.768;8.636;2023-12-14T02:57:25;99408.94;;;6.84;100.00
59435;BME280;45241;49.768;8.636;2023-12-14T02:59:51;99411.59;;;6.84;100.00
59435;BME280;45241;49.768;8.636;2023-12-14T03:02:16;99407.34;;;6.89;100.00
59435;BME280;45241;49.768;8.636;2023-12-14T03:04:41;99420.03;;;6.87;100.00
59435;BME280;45241;49.768;8.636;2023-12-14T03:07:07;99417.38;;;6.87;100.00
59435;BME280;45241;49.768;8.636;2023-12-14T03:09:33;99416.75;;;6.85;100.00
59435;BME280;45241;49.768;8.636;2023-12-14T03:11:59;99421.75;;;6.95;100.00
59435;BME280;45241;49.768;8.636;2023-12-14T03:14:25;99428.28;;;6.92;100.00
59435;BME280;45241;49.768;8.636;2023-12-14T03:16:50;99420.94;;;6.94;100.00
59435;BME280;45241;49.768;8.636;2023-12-14T03:19:16;99436.09;;;6.94;100.00
59435;BME280;45241;49.768;8.636;2023-12-14T03:21:42;99430.75;;;6.94;100.00
59435;BME280;45241;49.768;8.636;2023-12-14T03:24:08;99431.53;;;6.88;100.00
59435;BME280;45241;49.768;8.636;2023-12-14T03:26:34;99438.13;;;6.92;100.00
59435;BME280;45241;49.768;8.636;2023-12-14T03:28:59;99446.94;;;6.92;100.00
59435;BME280;45241;49.768;8.636;2023-12-14T03:31:25;99449.53;;;7.00;100.00
59435;BME280;45241;49.768;8.636;2023-12-14T03:33:50;99461.38;;;6.98;100.00
59435;BME280;45241;49.768;8.636;2023-12-14T03:36:15;99463.56;;;6.94;100.00
59435;BME280;45241;49.768;8.636;2023-12-14T03:38:40;99460.25;;;6.92;100.00
59435;BME280;45241;49.768;8.636;2023-12-14T03:41:06;99469.28;;;6.91;100.00
59435;BME280;45241;49.768;8.636;2023-12-14T03:43:31;99475.44;;;6.92;100.00
59435;BME280;45241;49.768;8.636;2023-12-14T03:45:56;99476.44;;;6.91;100.00
59435;BME280;45241;49.768;8.636;2023-12-14T03:48:22;99479.94;;;6.91;100.00
59435;BME280;45241;49.768;8.636;2023-12-14T03:50:47;99482.59;;;6.91;100.00
59435;BME280;45241;49.768;8.636;2023-12-14T03:53:12;99480.75;;;6.92;100.00
59435;BME280;45241;49.768;8.636;2023-12-14T03:55:37;99481.56;;;6.92;100.00
59435;BME280;45241;49.768;8.636;2023-12-14T03:58:03;99487.09;;;6.91;100.00
59435;BME280;45241;49.768;8.636;2023-12-14T04:00:28;99492.53;;;6.97;100.00
59435;BME280;45241;49.768;8.636;2023-12-14T04:02:53;99499.16;;;7.01;100.00
59435;BME280;45241;49.768;8.636;2023-12-14T04:05:19;99507.97;;;7.02;100.00
59435;BME280;45241;49.768;8.636;2023-12-14T04:07:44;99503.47;;;7.03;100.00
59435;BME280;45241;49.768;8.636;2023-12-14T04:10:11;99515.59;;;7.05;100.00
59435;BME280;45241;49.768;8.636;2023-12-14T04:12:37;99511.47;;;7.03;100.00
59435;BME280;45241;49.768;8.636;2023-12-14T04:15:03;99510.44;;;7.04;100.00
59435;BME280;45241;49.768;8.636;2023-12-14T04:17:30;99519.66;;;7.01;100.00
59435;BME280;45241;49.768;8.636;2023-12-14T04:19:56;99525.06;;;7.08;100.00
59435;BME280;45241;49.768;8.636;2023-12-14T04:22:21;99522.38;;;7.08;100.00
59435;BME280;45241;49.768;8.636;2023-12-14T04:24:46;99520.00;;;7.13;100.00
59435;BME280;45241;49.768;8.636;2023-12-14T04:27:12;99528.44;;;7.16;100.00
59435;BME280;45241;49.768;8.636;2023-12-14T04:29:37;99531.50;;;7.13;100.00
59435;BME280;45241;49.768;8.636;2023-12-14T04:32:02;99537.19;;;7.10;100.00
59435;BME280;45241;49.768;8.636;2023-12-14T04:34:28;99535.34;;;6.96;100.00
59435;BME280;45241;49.768;8.636;2023-12-14T04:36:53;99545.09;;;7.04;100.00
59435;BME280;45241;49.768;8.636;2023-12-14T04:39:22;99540.41;;;7.06;100.00
59435;BME280;45241;49.768;8.636;2023-12-14T04:41:48;99538.38;;;7.08;100.00
59435;BME280;45241;49.768;8.636;2023-12-14T04:44:13;99547.03;;;7.10;100.00
59435;BME280;45241;49.768;8.636;2023-12-14T04:46:38;99546.09;;;7.03;100.00
59435;BME280;45241;49.768;8.636;2023-12-14T04:49:03;99560.91;;;6.38;100.00
59435;BME280;45241;49.768;8.636;2023-12-14T04:51:29;99563.28;;;6.85;100.00
59435;BME280;45241;49.768;8.636;2023-12-14T04:53:54;99568.97;;;6.97;100.00
59435;BME280;45241;49.768;8.636;2023-12-14T04:56:19;99570.91;;;6.88;100.00
59435;BME280;45241;49.768;8.636;2023-12-14T04:58:45;99571.09;;;6.87;100.00
59435;BME280;45241;49.768;8.636;2023-12-14T05:01:11;99582.13;;;6.98;100.00
59435;BME280;45241;49.768;8.636;2023-12-14T05:03:37;99582.59;;;7.02;100.00
59435;BME280;45241;49.768;8.636;2023-12-14T05:06:02;99595.53;;;7.05;100.00
59435;BME280;45241;49.768;8.636;2023-12-14T05:08:27;99595.91;;;7.17;100.00
59435;BME280;45241;49.768;8.636;2023-12-14T05:10:53;99601.06;;;7.18;100.00
59435;BME280;45241;49.768;8.636;2023-12-14T05:13:18;99594.72;;;7.19;100.00
59435;BME280;45241;49.768;8.636;2023-12-14T05:15:43;99599.66;;;7.08;100.00
59435;BME280;45241;49.768;8.636;2023-12-14T05:18:09;99607.66;;;7.08;100.00
59435;BME280;45241;49.768;8.636;2023-12-14T05:20:35;99617.75;;;6.97;100.00
59435;BME280;45241;49.768;8.636;2023-12-14T05:23:00;99605.59;;;6.80;100.00
59435;BME280;45241;49.768;8.636;2023-12-14T05:25:26;99621.78;;;6.79;100.00
59435;BME280;45241;49.768;8.636;2023-12-14T05:27:51;99642.09;;;6.57;100.00
59435;BME280;45241;49.768;8.636;2023-12-14T05:30:16;99645.28;;;6.75;100.00
59435;BME280;45241;49.768;8.636;2023-12-14T05:32:43;99654.41;;;6.95;100.00
59435;BME280;45241;49.768;8.636;2023-12-14T05:35:08;99660.63;;;7.11;100.00
59435;BME280;45241;49.768;8.636;2023-12-14T05:37:34;99664.31;;;7.24;100.00
59435;BME280;45241;49.768;8.636;2023-12-14T05:40:00;99655.13;;;7.27;100.00
59435;BME280;45241;49.768;8.636;2023-12-14T05:42:25;99660.00;;;7.23;100.00
59435;BME280;45241;49.768;8.636;2023-12-14T05:44:50;99660.81;;;7.24;100.00
59435;BME280;45241;49.768;8.636;2023-12-14T05:47:15;99669.78;;;7.08;100.00
59435;BME280;45241;49.768;8.636;2023-12-14T05:49:42;99682.03;;;7.17;100.00
59435;BME280;45241;49.768;8.636;2023-12-14T05:52:08;99672.66;;;7.21;100.00
59435;BME280;45241;49.768;8.636;2023-12-14T05:54:35;99676.72;;;6.94;100.00
59435;BME280;45241;49.768;8.636;2023-12-14T05:57:01;99689.84;;;7.19;100.00
59435;BME280;45241;49.768;8.636;2023-12-14T05:59:26;99697.84;;;6.81;100.00
59435;BME280;45241;49.768;8.636;2023-12-14T06:01:57;99703.22;;;6.96;100.00
59435;BME280;45241;49.768;8.636;2023-12-14T06:04:22;99705.56;;;7.14;100.00
59435;BME280;45241;49.768;8.636;2023-12-14T06:06:47;99703.81;;;7.21;100.00
59435;BME280;45241;49.768;8.636;2023-12-14T06:09:13;99706.69;;;7.34;100.00
59435;BME280;45241;49.768;8.636;2023-12-14T06:11:38;99712.56;;;7.29;100.00
59435;BME280;45241;49.768;8.636;2023-12-14T06:14:03;99718.53;;;7.31;100.00
59435;BME280;45241;49.768;8.636;2023-12-14T06:16:28;99731.78;;;7.25;100.00
59435;BME280;45241;49.768;8.636;2023-12-14T06:18:54;99737.31;;;7.38;100.00
59435;BME280;45241;49.768;8.636;2023-12-14T06:21:19;99739.41;;;7.28;100.00
59435;BME280;45241;49.768;8.636;2023-12-14T06:23:44;99751.91;;;7.27;100.00
59435;BME280;45241;49.768;8.636;2023-12-14T06:26:09;99753.00;;;7.33;100.00
59435;BME280;45241;49.768;8.636;2023-12-14T06:28:35;99755.50;;;7.35;100.00
59435;BME280;45241;49.768;8.636;2023-12-14T06:31:00;99753.50;;;7.37;100.00
59435;BME280;45241;49.768;8.636;2023-12-14T06:33:26;99750.47;;;7.40;100.00
59435;BME280;45241;49.768;8.636;2023-12-14T06:35:52;99749.81;;;7.38;100.00
59435;BME280;45241;49.768;8.636;2023-12-14T06:38:17;99751.53;;;7.30;100.00
59435;BME280;45241;49.768;8.636;2023-12-14T06:40:42;99768.38;;;7.31;100.00
59435;BME280;45241;49.768;8.636;2023-12-14T06:43:07;99763.41;;;7.28;100.00
59435;BME280;45241;49.768;8.636;2023-12-14T06:45:33;99767.84;;;7.36;100.00
59435;BME280;45241;49.768;8.636;2023-12-14T06:47:58;99770.50;;;7.36;100.00
59435;BME280;45241;49.768;8.636;2023-12-14T06:50:23;99776.94;;;7.41;100.00
59435;BME280;45241;49.768;8.636;2023-12-14T06:52:49;99777.31;;;7.38;100.00
59435;BME280;45241;49.768;8.636;2023-12-14T06:55:14;99791.72;;;7.29;100.00
59435;BME280;45241;49.768;8.636;2023-12-14T06:57:42;99782.91;;;7.43;100.00
59435;BME280;45241;49.768;8.636;2023-12-14T07:00:08;99791.69;;;7.52;100.00
59435;BME280;45241;49.768;8.636;2023-12-14T07:02:34;99795.63;;;7.41;100.00
59435;BME280;45241;49.768;8.636;2023-12-14T07:05:00;99803.25;;;7.44;100.00
59435;BME280;45241;49.768;8.636;2023-12-14T07:07:25;99806.03;;;7.51;100.00
59435;BME280;45241;49.768;8.636;2023-12-14T07:09:50;99805.41;;;7.64;100.00
59435;BME280;45241;49.768;8.636;2023-12-14T07:12:16;99815.09;;;7.42;100.00
59435;BME280;45241;49.768;8.636;2023-12-14T07:14:41;99818.13;;;7.24;100.00
59435;BME280;45241;49.768;8.636;2023-12-14T07:17:07;99824.66;;;7.36;100.00
59435;BME280;45241;49.768;8.636;2023-12-14T07:19:32;99827.88;;;7.46;100.00
59435;BME280;45241;49.768;8.636;2023-12-14T07:21:57;99833.03;;;7.48;100.00
59435;BME280;45241;49.768;8.636;2023-12-14T07:24:22;99838.75;;;7.45;100.00
59435;BME280;45241;49.768;8.636;2023-12-14T07:26:48;99842.59;;;7.42;100.00
59435;BME280;45241;49.768;8.636;2023-12-14T07:29:13;99850.59;;;7.42;100.00
59435;BME280;45241;49.768;8.636;2023-12-14T07:31:38;99850.44;;;7.21;100.00
59435;BME280;45241;49.768;8.636;2023-12-14T07:34:04;99853.72;;;7.46;100.00
59435;BME280;45241;49.768;8.636;2023-12-14T07:36:29;99854.66;;;7.38;100.00
59435;BME280;45241;49.768;8.636;2023-12-14T07:38:54;99861.41;;;7.49;100.00
59435;BME280;45241;49.768;8.636;2023-12-14T07:41:20;99865.81;;;7.56;100.00
59435;BME280;45241;49.768;8.636;2023-12-14T07:43:48;99871.69;;;7.52;100.00
59435;BME280;45241;49.768;8.636;2023-12-14T07:46:13;99879.88;;;7.50;100.00
59435;BME280;45241;49.768;8.636;2023-12-14T07:48:39;99887.69;;;7.52;100.00
59435;BME280;45241;49.768;8.636;2023-12-14T07:51:05;99885.41;;;7.03;100.00
59435;BME280;45241;49.768;8.636;2023-12-14T07:53:30;99901.81;;;7.15;100.00
59435;BME280;45241;49.768;8.636;2023-12-14T07:55:55;99907.47;;;7.57;100.00
59435;BME280;45241;49.768;8.636;2023-12-14T07:58:20;99908.38;;;7.50;100.00
59435;BME280;45241;49.768;8.636;2023-12-14T08:00:46;99911.47;;;7.62;100.00
59435;BME280;45241;49.768;8.636;2023-12-14T08:03:11;99911.00;;;7.73;100.00
59435;BME280;45241;49.768;8.636;2023-12-14T08:05:37;99918.84;;;7.37;100.00
59435;BME280;45241;49.768;8.636;2023-12-14T08:08:02;99918.50;;;7.54;100.00
59435;BME280;45241;49.768;8.636;2023-12-14T08:10:27;99918.41;;;7.85;100.00
59435;BME280;45241;49.768;8.636;2023-12-14T08:12:53;99923.53;;;7.87;100.00
59435;BME280;45241;49.768;8.636;2023-12-14T08:15:18;99926.78;;;7.97;100.00
59435;BME280;45241;49.768;8.636;2023-12-14T08:17:43;99932.91;;;7.68;100.00
59435;BME280;45241;49.768;8.636;2023-12-14T08:20:09;99934.91;;;7.66;100.00
59435;BME280;45241;49.768;8.636;2023-12-14T08:22:36;99938.22;;;7.91;100.00
59435;BME280;45241;49.768;8.636;2023-12-14T08:25:02;99946.22;;;8.06;100.00
59435;BME280;45241;49.768;8.636;2023-12-14T08:27:28;99954.13;;;7.99;100.00
59435;BME280;45241;49.768;8.636;2023-12-14T08:29:54;99957.47;;;8.01;100.00
59435;BME280;45241;49.768;8.636;2023-12-14T08:32:19;99965.75;;;8.06;100.00
59435;BME280;45241;49.768;8.636;2023-12-14T08:34:44;99971.38;;;8.11;100.00
59435;BME280;45241;49.768;8.636;2023-12-14T08:37:10;99978.66;;;8.17;100.00
59435;BME280;45241;49.768;8.636;2023-12-14T08:39:35;99979.31;;;7.82;100.00
59435;BME280;45241;49.768;8.636;2023-12-14T08:42:00;99997.34;;;8.17;100.00
59435;BME280;45241;49.768;8.636;2023-12-14T08:44:26;99997.22;;;8.11;100.00
59435;BME280;45241;49.768;8.636;2023-12-14T08:46:51;99995.06;;;8.29;100.00
59435;BME280;45241;49.768;8.636;2023-12-14T08:49:16;100005.97;;;8.05;100.00
59435;BME280;45241;49.768;8.636;2023-12-14T08:51:42;100011.75;;;7.94;100.00
59435;BME280;45241;49.768;8.636;2023-12-14T08:54:07;100018.41;;;8.12;100.00
59435;BME280;45241;49.768;8.636;2023-12-14T08:56:33;100017.97;;;8.24;100.00
59435;BME280;45241;49.768;8.636;2023-12-14T08:58:58;100029.06;;;7.98;100.00
59435;BME280;45241;49.768;8.636;2023-12-14T09:01:24;100034.19;;;7.62;100.00
59435;BME280;45241;49.768;8.636;2023-12-14T09:03:50;100043.63;;;7.87;100.00
59435;BME280;45241;49.768;8.636;2023-12-14T09:06:16;100049.69;;;8.27;100.00
59435;BME280;45241;49.768;8.636;2023-12-14T09:08:43;100052.00;;;8.44;100.00
59435;BME280;45241;49.768;8.636;2023-12-14T09:11:08;100055.78;;;8.50;100.00
59435;BME280;45241;49.768;8.636;2023-12-14T09:13:34;100057.94;;;8.17;100.00
59435;BME280;45241;49.768;8.636;2023-12-14T09:15:59;100061.50;;;8.09;100.00
59435;BME280;45241;49.768;8.636;2023-12-14T09:18:24;100067.63;;;7.95;100.00
59435;BME280;45241;49.768;8.636;2023-12-14T09:20:50;100075.06;;;8.00;100.00
59435;BME280;45241;49.768;8.636;2023-12-14T09:23:16;100075.84;;;8.31;100.00
59435;BME280;45241;49.768;8.636;2023-12-14T09:25:41;100083.69;;;8.47;100.00
59435;BME280;45241;49.768;8.636;2023-12-14T09:28:07;100085.31;;;8.34;100.00
59435;BME280;45241;49.768;8.636;2023-12-14T09:30:32;100102.56;;;8.46;100.00
59435;BME280;45241;49.768;8.636;2023-12-14T09:32:58;100104.50;;;8.52;100.00
59435;BME280;45241;49.768;8.636;2023-12-14T09:35:23;100104.06;;;8.63;100.00
59435;BME280;45241;49.768;8.636;2023-12-14T09:37:48;100114.88;;;8.55;100.00
59435;BME280;45241;49.768;8.636;2023-12-14T09:40:15;100110.50;;;8.39;100.00
59435;BME280;45241;49.768;8.636;2023-12-14T09:42:41;100125.16;;;8.43;100.00
59435;BME280;45241;49.768;8.636;2023-12-14T09:45:08;100131.69;;;8.41;100.00
59435;BME280;45241;49.768;8.636;2023-12-14T09:47:35;100130.63;;;8.27;100.00
59435;BME280;45241;49.768;8.636;2023-12-14T09:50:00;100134.81;;;8.44;100.00
59435;BME280;45241;49.768;8.636;2023-12-14T09:52:26;100139.56;;;8.57;100.00
59435;BME280;45241;49.768;8.636;2023-12-14T09:54:51;100141.34;;;8.42;100.00
59435;BME280;45241;49.768;8.636;2023-12-14T09:57:18;100145.25;;;8.54;100.00
59435;BME280;45241;49.768;8.636;2023-12-14T09:59:53;100149.16;;;8.66;100.00
59435;BME280;45241;49.768;8.636;2023-12-14T10:02:19;100155.53;;;8.65;100.00
59435;BME280;45241;49.768;8.636;2023-12-14T10:04:46;100150.63;;;8.69;100.00
59435;BME280;45241;49.768;8.636;2023-12-14T10:07:11;100146.09;;;8.55;100.00
59435;BME280;45241;49.768;8.636;2023-12-14T10:09:37;100153.06;;;8.41;100.00
59435;BME280;45241;49.768;8.636;2023-12-14T10:12:08;100159.03;;;8.43;100.00
59435;BME280;45241;49.768;8.636;2023-12-14T10:14:35;100161.25;;;8.39;100.00
59435;BME280;45241;49.768;8.636;2023-12-14T10:17:20;100152.97;;;8.49;100.00
59435;BME280;45241;49.768;8.636;2023-12-14T10:19:47;100159.41;;;8.40;100.00
59435;BME280;45241;49.768;8.636;2023-12-14T10:22:14;100160.81;;;8.50;100.00
59435;BME280;45241;49.768;8.636;2023-12-14T10:24:44;100166.69;;;8.46;100.00
59435;BME280;45241;49.768;8.636;2023-12-14T10:27:10;100165.69;;;8.47;100.00
59435;BME280;45241;49.768;8.636;2023-12-14T10:29:39;100169.53;;;8.22;100.00
59435;BME280;45241;49.768;8.636;2023-12-14T10:32:06;100170.56;;;8.20;100.00
59435;BME280;45241;49.768;8.636;2023-12-14T10:34:32;100182.44;;;8.41;100.00
59435;BME280;45241;49.768;8.636;2023-12-14T10:36:59;100178.03;;;8.48;100.00
59435;BME280;45241;49.768;8.636;2023-12-14T10:39:25;100181.00;;;8.30;100.00
59435;BME280;45241;49.768;8.636;2023-12-14T10:41:52;100188.84;;;8.55;100.00
59435;BME280;45241;49.768;8.636;2023-12-14T10:44:20;100187.53;;;8.28;100.00
59435;BME280;45241;49.768;8.636;2023-12-14T10:46:48;100195.44;;;8.67;100.00
59435;BME280;45241;49.768;8.636;2023-12-14T10:49:14;100194.28;;;8.61;100.00
59435;BME280;45241;49.768;8.636;2023-12-14T10:51:40;100200.44;;;8.85;100.00
59435;BME280;45241;49.768;8.636;2023-12-14T10:54:08;100201.88;;;8.49;100.00
59435;BME280;45241;49.768;8.636;2023-12-14T10:56:34;100204.03;;;8.54;100.00
59435;BME280;45241;49.768;8.636;2023-12-14T10:59:00;100207.44;;;8.86;100.00
59435;BME280;45241;49.768;8.636;2023-12-14T11:01:26;100215.94;;;9.04;100.00
59435;BME280;45241;49.768;8.636;2023-12-14T11:03:55;100209.47;;;8.84;100.00
59435;BME280;45241;49.768;8.636;2023-12-14T11:08:52;100219.00;;;9.01;100.00
59435;BME280;45241;49.768;8.636;2023-12-14T11:11:17;100222.06;;;9.13;100.00
59435;BME280;45241;49.768;8.636;2023-12-14T11:13:52;100218.56;;;8.74;100.00
59435;BME280;45241;49.768;8.636;2023-12-14T11:16:22;100225.00;;;8.65;100.00
59435;BME280;45241;49.768;8.636;2023-12-14T11:18:48;100223.06;;;8.74;100.00
59435;BME280;45241;49.768;8.636;2023-12-14T11:21:19;100232.53;;;8.62;100.00
59435;BME280;45241;49.768;8.636;2023-12-14T11:23:50;100237.19;;;8.37;100.00
59435;BME280;45241;49.768;8.636;2023-12-14T11:26:21;100243.81;;;8.26;100.00
59435;BME280;45241;49.768;8.636;2023-12-14T11:28:48;100250.00;;;8.18;100.00
59435;BME280;45241;49.768;8.636;2023-12-14T11:31:13;100244.06;;;8.39;100.00
59435;BME280;45241;49.768;8.636;2023-12-14T11:33:39;100249.22;;;8.64;100.00
59435;BME280;45241;49.768;8.636;2023-12-14T11:36:05;100250.75;;;8.35;100.00
59435;BME280;45241;49.768;8.636;2023-12-14T11:38:31;100262.75;;;8.39;100.00
59435;BME280;45241;49.768;8.636;2023-12-14T11:40:58;100262.47;;;8.57;100.00
59435;BME280;45241;49.768;8.636;2023-12-14T11:43:24;100271.25;;;8.43;100.00
59435;BME280;45241;49.768;8.636;2023-12-14T11:45:52;100274.56;;;8.45;100.00
59435;BME280;45241;49.768;8.636;2023-12-14T11:48:17;100274.56;;;8.45;100.00
59435;BME280;45241;49.768;8.636;2023-12-14T11:50:45;100275.41;;;8.45;100.00
59435;BME280;45241;49.768;8.636;2023-12-14T11:53:10;100275.28;;;8.62;100.00
59435;BME280;45241;49.768;8.636;2023-12-14T11:55:38;100272.50;;;8.55;100.00
59435;BME280;45241;49.768;8.636;2023-12-14T11:58:05;100272.25;;;8.65;100.00
59435;BME280;45241;49.768;8.636;2023-12-14T12:00:32;100269.56;;;8.65;100.00
59435;BME280;45241;49.768;8.636;2023-12-14T12:05:41;100268.28;;;8.84;100.00
59435;BME280;45241;49.768;8.636;2023-12-14T12:08:08;100271.50;;;8.79;100.00
59435;BME280;45241;49.768;8.636;2023-12-14T12:10:34;100274.22;;;8.71;100.00
59435;BME280;45241;49.768;8.636;2023-12-14T12:13:01;100276.72;;;8.72;100.00
59435;BME280;45241;49.768;8.636;2023-12-14T12:15:27;100281.00;;;8.82;100.00
59435;BME280;45241;49.768;8.636;2023-12-14T12:17:53;100275.66;;;8.82;100.00
59435;BME280;45241;49.768;8.636;2023-12-14T12:20:18;100285.69;;;8.79;100.00
59435;BME280;45241;49.768;8.636;2023-12-14T12:22:43;100294.50;;;9.03;100.00
59435;BME280;45241;49.768;8.636;2023-12-14T12:25:09;100285.75;;;8.71;100.00
59435;BME280;45241;49.768;8.636;2023-12-14T12:27:34;100292.03;;;9.01;100.00
59435;BME280;45241;49.768;8.636;2023-12-14T12:29:59;100291.81;;;8.65;100.00
59435;BME280;45241;49.768;8.636;2023-12-14T12:32:25;100293.22;;;8.53;100.00
59435;BME280;45241;49.768;8.636;2023-12-14T12:34:50;100293.34;;;8.60;100.00
59435;BME280;45241;49.768;8.636;2023-12-14T12:37:17;100297.81;;;8.36;100.00
59435;BME280;45241;49.768;8.636;2023-12-14T12:39:42;100300.91;;;8.48;100.00
59435;BME280;45241;49.768;8.636;2023-12-14T12:42:08;100298.63;;;8.37;100.00
59435;BME280;45241;49.768;8.636;2023-12-14T12:44:33;100304.34;;;8.34;100.00
59435;BME280;45241;49.768;8.636;2023-12-14T12:47:04;100305.78;;;8.44;100.00
59435;BME280;45241;49.768;8.636;2023-12-14T12:49:31;100309.59;;;8.50;100.00
59435;BME280;45241;49.768;8.636;2023-12-14T12:51:56;100307.28;;;8.47;100.00
59435;BME280;45241;49.768;8.636;2023-12-14T12:54:21;100303.41;;;8.49;100.00